Johannesburg, South Africa
Current Conditions -  °F | °C
As of 11:00 AM on Sunday 23 Nov 2014 (Local Time) from FAOR Reporting Station
Moderate Rain Moderate Rain  
Wind Chill: 61°   Ceiling: Unl
Heat Index: 61°   Visibility: 4mi
Dew Point: 57°   Wind: 14mph
Humidity: 88%   Direction: 240°WSW
Pressure: 30.33"   Gusts: 25mph
Location:  26.19°S, 28.04°E
Report Text: FAOR 230900Z 24012G22KT 210V290 6000 RA SCT007 SCT023 16/14 Q1027 TEMPO 3000
Loading
Personal Weather Stations






























Interactive Weather Map New forecast layout! Learn more

10-Day Weather Forecast

Advertisements
Track Severe Weather on mobile